createdAt,value
2022-08-11T00:00:37.194Z,11
2022-08-11T00:01:38.205Z,11
2022-08-11T00:02:42.787Z,11
2022-08-11T00:03:44.607Z,10
2022-08-11T00:04:46.449Z,10
2022-08-11T00:05:47.697Z,10
2022-08-11T00:06:48.962Z,10
2022-08-11T00:07:50.504Z,10
2022-08-11T00:08:52.067Z,10
2022-08-11T00:09:53.929Z,10
2022-08-11T00:10:56.130Z,11
2022-08-11T00:11:59.074Z,11
2022-08-11T00:13:01.547Z,13
2022-08-11T00:14:02.564Z,13
2022-08-11T00:15:04.106Z,13
2022-08-11T00:16:05.102Z,13
2022-08-11T00:17:06.355Z,13
2022-08-11T00:18:07.634Z,12
2022-08-11T00:19:11.386Z,12
2022-08-11T00:20:17.368Z,11
2022-08-11T00:21:18.949Z,10
2022-08-11T00:23:07.240Z,10
2022-08-11T00:24:08.762Z,10
2022-08-11T00:25:10.826Z,10
2022-08-11T00:26:12.337Z,10
2022-08-11T00:27:14.538Z,11
2022-08-11T00:28:15.530Z,11
2022-08-11T00:29:16.802Z,11
2022-08-11T00:30:18.363Z,11
2022-08-11T00:31:20.440Z,11
2022-08-11T00:32:21.754Z,11
2022-08-11T00:33:45.391Z,11
2022-08-11T00:34:46.805Z,11
2022-08-11T00:35:57.600Z,11
2022-08-11T00:36:58.787Z,11
2022-08-11T00:37:59.808Z,11
2022-08-11T00:39:00.808Z,11
2022-08-11T00:40:02.235Z,10
2022-08-11T00:41:04.124Z,10
2022-08-11T00:42:05.641Z,11
2022-08-11T00:43:19.276Z,11
2022-08-11T00:44:28.992Z,12
2022-08-11T00:45:31.486Z,12
2022-08-11T00:46:32.479Z,12
2022-08-11T00:47:34.029Z,12
2022-08-11T00:48:35.083Z,12
2022-08-11T00:49:37.122Z,12
2022-08-11T00:50:38.712Z,12
2022-08-11T00:52:06.514Z,12
2022-08-11T00:53:07.808Z,12
2022-08-11T00:54:09.122Z,13
2022-08-11T00:55:10.425Z,13
2022-08-11T00:56:12.168Z,13
2022-08-11T00:57:38.482Z,12
2022-08-11T00:58:40.226Z,11
2022-08-11T00:59:51.748Z,11
2022-08-11T01:00:53.422Z,11
2022-08-11T01:01:54.647Z,11
2022-08-11T01:02:55.909Z,12
2022-08-11T01:03:58.400Z,11
2022-08-11T01:04:59.901Z,13
2022-08-11T01:06:03.133Z,14
2022-08-11T01:07:09.197Z,15
2022-08-11T01:08:10.758Z,16
2022-08-11T01:09:23.034Z,15
2022-08-11T01:10:24.295Z,15
2022-08-11T01:11:27.350Z,16
2022-08-11T01:12:29.315Z,16
2022-08-11T01:13:31.269Z,16
2022-08-11T01:14:34.897Z,15
2022-08-11T01:15:36.607Z,14
2022-08-11T01:16:41.191Z,14
2022-08-11T01:17:42.473Z,14
2022-08-11T01:18:44.283Z,13
2022-08-11T01:20:49.371Z,12
2022-08-11T01:21:51.153Z,11
2022-08-11T01:22:55.501Z,10
2022-08-11T01:23:56.795Z,10
2022-08-11T01:24:58.101Z,10
2022-08-11T01:25:59.109Z,11
2022-08-11T01:27:00.131Z,12
2022-08-11T01:28:01.071Z,12
2022-08-11T01:29:02.720Z,13
2022-08-11T01:30:04.254Z,13
2022-08-11T01:31:05.767Z,12
2022-08-11T01:32:08.395Z,12
2022-08-11T01:33:09.952Z,12
2022-08-11T01:34:11.515Z,13
2022-08-11T01:35:12.828Z,14
2022-08-11T01:36:15.198Z,15
2022-08-11T01:37:16.497Z,14
2022-08-11T01:38:17.780Z,13
2022-08-11T01:39:19.264Z,12
2022-08-11T01:40:20.642Z,11
2022-08-11T01:41:22.048Z,12
2022-08-11T01:42:23.048Z,12
2022-08-11T01:43:25.153Z,11
2022-08-11T01:44:26.382Z,11
2022-08-11T01:45:28.361Z,10
2022-08-11T01:46:30.155Z,10
2022-08-11T01:47:31.465Z,11
2022-08-11T01:48:32.723Z,10
2022-08-11T01:50:10.573Z,11
2022-08-11T01:51:17.477Z,10
2022-08-11T01:52:18.620Z,10
2022-08-11T01:53:35.967Z,10
2022-08-11T01:54:41.068Z,10
2022-08-11T01:55:43.403Z,11
2022-08-11T01:56:45.246Z,12
2022-08-11T01:57:47.121Z,12
2022-08-11T01:58:48.959Z,12
2022-08-11T01:59:50.530Z,12
2022-08-11T02:00:53.336Z,12
2022-08-11T02:01:55.014Z,12
2022-08-11T02:02:56.831Z,12
2022-08-11T02:03:58.129Z,13
2022-08-11T02:04:59.130Z,11
2022-08-11T02:06:00.403Z,12
2022-08-11T02:07:02.066Z,12
2022-08-11T02:08:03.623Z,12
2022-08-11T02:09:13.323Z,13
2022-08-11T02:10:25.755Z,12
2022-08-11T02:11:42.892Z,12
2022-08-11T02:12:52.949Z,12
2022-08-11T02:13:53.951Z,12
2022-08-11T02:15:05.909Z,12
2022-08-11T02:16:07.796Z,12
2022-08-11T02:17:09.588Z,12
2022-08-11T02:18:11.179Z,11
2022-08-11T02:19:13.273Z,11
2022-08-11T02:20:15.136Z,11
2022-08-11T02:21:17.175Z,10
2022-08-11T02:22:19.780Z,11
2022-08-11T02:24:07.816Z,11
2022-08-11T02:25:09.092Z,11
2022-08-11T02:26:10.633Z,11
2022-08-11T02:27:12.671Z,11
2022-08-11T02:28:13.965Z,12
2022-08-11T02:29:15.520Z,12
2022-08-11T02:30:16.511Z,12
2022-08-11T02:32:30.079Z,12
2022-08-11T02:33:36.781Z,13
2022-08-11T02:34:39.181Z,14
2022-08-11T02:35:42.981Z,14
2022-08-11T02:36:44.763Z,13
2022-08-11T02:37:46.034Z,12
2022-08-11T02:38:47.341Z,12
2022-08-11T02:39:51.071Z,11
2022-08-11T02:40:52.883Z,11
2022-08-11T02:41:54.188Z,12
2022-08-11T02:42:55.747Z,12
2022-08-11T02:43:56.997Z,13
2022-08-11T02:44:58.304Z,14
2022-08-11T02:46:00.236Z,14
2022-08-11T02:47:01.441Z,13
2022-08-11T02:48:03.384Z,14
2022-08-11T02:49:04.392Z,13
2022-08-11T02:50:08.303Z,13
2022-08-11T02:51:09.291Z,13
2022-08-11T02:52:10.519Z,12
2022-08-11T02:53:11.496Z,12
2022-08-11T02:54:12.499Z,12
2022-08-11T02:55:58.183Z,13
2022-08-11T02:56:59.924Z,13
2022-08-11T02:58:01.809Z,13
2022-08-11T02:59:03.100Z,13
2022-08-11T03:00:04.119Z,13
2022-08-11T03:01:05.097Z,12
2022-08-11T03:02:06.269Z,12
2022-08-11T03:03:08.279Z,13
2022-08-11T03:04:10.066Z,13
2022-08-11T03:05:11.875Z,13
2022-08-11T03:06:13.100Z,13
2022-08-11T03:07:29.964Z,12
2022-08-11T03:08:31.265Z,12
2022-08-11T03:09:32.260Z,13
2022-08-11T03:10:33.529Z,13
2022-08-11T03:11:37.782Z,13
2022-08-11T03:12:39.224Z,13
2022-08-11T03:13:40.759Z,13
2022-08-11T03:14:42.261Z,13
2022-08-11T03:15:44.872Z,12
2022-08-11T03:16:46.174Z,12
2022-08-11T03:17:53.236Z,12
2022-08-11T03:18:54.473Z,12
2022-08-11T03:19:55.487Z,12
2022-08-11T03:20:56.709Z,13
2022-08-11T03:22:06.248Z,13
2022-08-11T03:23:20.713Z,13
2022-08-11T03:24:21.781Z,12
2022-08-11T03:25:23.040Z,12
2022-08-11T03:26:24.567Z,13
2022-08-11T03:27:25.819Z,12
2022-08-11T03:28:27.317Z,12
2022-08-11T03:29:28.380Z,12
2022-08-11T03:30:30.237Z,11
2022-08-11T03:31:31.560Z,11
2022-08-11T03:32:32.924Z,11
2022-08-11T03:33:34.507Z,11
2022-08-11T03:34:36.048Z,11
2022-08-11T03:35:37.318Z,12
2022-08-11T03:37:18.313Z,13
2022-08-11T03:38:30.906Z,13
2022-08-11T03:39:32.005Z,13
2022-08-11T03:40:33.133Z,13
2022-08-11T03:42:06.854Z,13
2022-08-11T03:43:12.288Z,13
2022-08-11T03:44:15.238Z,13
2022-08-11T03:45:17.026Z,14
2022-08-11T03:46:22.647Z,14
2022-08-11T03:47:24.231Z,13
2022-08-11T03:48:25.195Z,14
2022-08-11T03:49:26.475Z,13
2022-08-11T03:50:28.012Z,13
2022-08-11T03:51:52.375Z,13
2022-08-11T03:52:53.632Z,13
2022-08-11T03:53:54.866Z,13
2022-08-11T03:54:56.662Z,14
2022-08-11T03:55:57.962Z,13
2022-08-11T03:57:01.117Z,14
2022-08-11T03:58:02.759Z,13
2022-08-11T03:59:04.543Z,13
2022-08-11T04:00:06.210Z,12
2022-08-11T04:01:07.705Z,12
2022-08-11T04:02:09.501Z,12
2022-08-11T04:03:10.511Z,12
2022-08-11T04:04:11.564Z,12
2022-08-11T04:05:12.843Z,11
2022-08-11T04:06:14.395Z,11
2022-08-11T04:07:17.902Z,11
2022-08-11T04:08:19.017Z,12
2022-08-11T04:09:20.571Z,12
2022-08-11T04:10:22.113Z,14
2022-08-11T04:11:23.109Z,14
2022-08-11T04:12:37.330Z,15
2022-08-11T04:13:38.357Z,16
2022-08-11T04:14:39.345Z,15
2022-08-11T04:15:40.435Z,15
2022-08-11T04:16:41.432Z,14
2022-08-11T04:17:42.975Z,13
2022-08-11T04:18:44.782Z,13
2022-08-11T04:19:46.302Z,13
2022-08-11T04:20:47.559Z,13
2022-08-11T04:21:49.223Z,13
2022-08-11T04:22:50.711Z,14
2022-08-11T04:24:39.461Z,14
2022-08-11T04:25:58.908Z,13
2022-08-11T04:27:02.264Z,13
2022-08-11T04:28:31.378Z,12
2022-08-11T04:30:05.791Z,13
2022-08-11T04:31:52.219Z,14
2022-08-11T04:32:54.223Z,14
2022-08-11T04:33:57.375Z,14
2022-08-11T04:34:58.682Z,13
2022-08-11T04:36:00.586Z,13
2022-08-11T04:37:01.605Z,13
2022-08-11T04:38:04.079Z,14
2022-08-11T04:39:05.072Z,13
2022-08-11T04:40:06.332Z,14
2022-08-11T04:41:07.720Z,12
2022-08-11T04:42:09.414Z,11
2022-08-11T04:43:10.935Z,13
2022-08-11T04:44:12.237Z,13
2022-08-11T04:45:13.942Z,14
2022-08-11T04:46:16.015Z,14
2022-08-11T04:47:18.121Z,14
2022-08-11T04:48:19.681Z,13
2022-08-11T04:49:33.680Z,14
2022-08-11T04:50:35.576Z,13
2022-08-11T04:51:36.858Z,13
2022-08-11T04:52:38.830Z,12
2022-08-11T04:53:41.849Z,13
2022-08-11T04:54:43.063Z,14
2022-08-11T04:55:44.369Z,14
2022-08-11T04:56:45.803Z,15
2022-08-11T04:57:47.035Z,14
2022-08-11T04:58:48.951Z,13
2022-08-11T04:59:50.491Z,14
2022-08-11T05:00:57.115Z,14
2022-08-11T05:01:59.103Z,14
2022-08-11T05:03:00.710Z,15
2022-08-11T05:04:01.987Z,15
2022-08-11T05:05:03.364Z,14
2022-08-11T05:06:05.147Z,16
2022-08-11T05:07:06.923Z,16
2022-08-11T05:08:07.943Z,15
2022-08-11T05:09:08.931Z,15
2022-08-11T05:10:10.202Z,14
2022-08-11T05:11:11.985Z,14
2022-08-11T05:12:13.530Z,14
2022-08-11T05:13:15.114Z,16
2022-08-11T05:14:16.930Z,16
2022-08-11T05:15:23.738Z,16
2022-08-11T05:16:25.554Z,16
2022-08-11T05:17:27.023Z,14
2022-08-11T05:18:28.349Z,14
2022-08-11T05:19:29.867Z,13
2022-08-11T05:20:31.097Z,12
2022-08-11T05:21:45.560Z,13
2022-08-11T05:22:46.668Z,14
2022-08-11T05:23:48.259Z,15
2022-08-11T05:24:49.265Z,15
2022-08-11T05:26:49.012Z,15
2022-08-11T05:27:52.098Z,14
2022-08-11T05:28:53.650Z,13
2022-08-11T05:29:54.655Z,13
2022-08-11T05:30:55.930Z,14
2022-08-11T05:31:57.207Z,14
2022-08-11T05:33:02.633Z,15
2022-08-11T05:34:04.265Z,14
2022-08-11T05:35:05.533Z,12
2022-08-11T05:36:07.636Z,12
2022-08-11T05:37:27.377Z,11
2022-08-11T05:38:29.140Z,12
2022-08-11T05:39:37.157Z,12
2022-08-11T05:40:38.638Z,12
2022-08-11T05:41:40.723Z,12
2022-08-11T05:42:43.088Z,11
2022-08-11T05:44:22.182Z,11
2022-08-11T05:45:23.939Z,11
2022-08-11T05:46:24.972Z,11
2022-08-11T05:47:26.285Z,12
2022-08-11T05:48:27.746Z,12
2022-08-11T05:49:32.662Z,11
2022-08-11T05:50:37.354Z,11
2022-08-11T05:51:55.779Z,12
2022-08-11T05:53:17.320Z,12
2022-08-11T05:54:29.752Z,12
2022-08-11T05:55:31.049Z,12
2022-08-11T05:56:32.917Z,11
2022-08-11T05:57:51.983Z,11
2022-08-11T05:58:54.235Z,11
2022-08-11T05:59:56.066Z,11
2022-08-11T06:00:57.611Z,11
2022-08-11T06:01:59.371Z,11
2022-08-11T06:03:00.987Z,11
2022-08-11T06:04:02.817Z,11
2022-08-11T06:05:04.156Z,10
2022-08-11T06:06:05.939Z,10
2022-08-11T06:07:08.327Z,10
2022-08-11T06:08:09.331Z,10
2022-08-11T06:09:11.093Z,10
2022-08-11T06:10:12.926Z,12
2022-08-11T06:11:14.487Z,12
2022-08-11T06:12:16.864Z,12
2022-08-11T06:13:18.659Z,13
2022-08-11T06:14:20.430Z,12
2022-08-11T06:15:21.484Z,13
2022-08-11T06:16:23.584Z,14
2022-08-11T06:17:24.666Z,13
2022-08-11T06:18:25.887Z,13
2022-08-11T06:19:27.492Z,12
2022-08-11T06:20:29.825Z,11
2022-08-11T06:21:31.935Z,12
2022-08-11T06:22:33.358Z,12
2022-08-11T06:23:36.882Z,12
2022-08-11T06:24:38.677Z,13
2022-08-11T06:25:40.735Z,15
2022-08-11T06:27:12.124Z,16
2022-08-11T06:28:21.409Z,16
2022-08-11T06:29:48.258Z,14
2022-08-11T06:30:59.461Z,13
2022-08-11T06:32:00.765Z,11
2022-08-11T06:33:02.309Z,11
2022-08-11T06:34:04.263Z,11
2022-08-11T06:35:05.996Z,10
2022-08-11T06:36:07.531Z,11
2022-08-11T06:37:08.989Z,11
2022-08-11T06:38:10.240Z,11
2022-08-11T06:39:11.670Z,11
2022-08-11T06:40:13.723Z,12
2022-08-11T06:41:14.728Z,12
2022-08-11T06:42:16.257Z,11
2022-08-11T06:43:17.574Z,11
2022-08-11T06:44:19.091Z,10
2022-08-11T06:45:21.479Z,10
2022-08-11T06:46:28.672Z,11
2022-08-11T06:47:29.986Z,13
2022-08-11T06:48:30.979Z,15
2022-08-11T06:49:32.314Z,15
2022-08-11T06:50:33.269Z,17
2022-08-11T06:51:36.263Z,16
2022-08-11T06:52:43.209Z,18
2022-08-11T06:54:05.733Z,21
2022-08-11T06:55:06.997Z,20
2022-08-11T06:57:30.151Z,24
2022-08-11T06:58:32.785Z,23
2022-08-11T06:59:34.329Z,21
2022-08-11T07:00:35.557Z,20
2022-08-11T07:01:37.193Z,16
2022-08-11T07:02:38.530Z,15
2022-08-11T07:03:40.276Z,16
2022-08-11T07:04:41.800Z,19
2022-08-11T07:05:43.060Z,21
2022-08-11T07:06:51.542Z,20
2022-08-11T07:07:53.325Z,18
2022-08-11T07:08:54.546Z,15
2022-08-11T07:09:55.566Z,12
2022-08-11T07:10:58.460Z,12
2022-08-11T07:11:59.741Z,13
2022-08-11T07:13:01.393Z,13
2022-08-11T07:14:04.154Z,17
2022-08-11T07:15:05.134Z,24
2022-08-11T07:16:13.980Z,28
2022-08-11T07:17:15.155Z,27
2022-08-11T07:18:16.427Z,23
2022-08-11T07:19:17.947Z,16
2022-08-11T07:20:19.450Z,13
2022-08-11T07:22:04.053Z,14
2022-08-11T07:23:05.271Z,14
2022-08-11T07:24:06.567Z,13
2022-08-11T07:25:07.830Z,12
2022-08-11T07:26:09.701Z,11
2022-08-11T07:27:11.004Z,11
2022-08-11T07:28:12.794Z,11
2022-08-11T07:29:14.339Z,11
2022-08-11T07:30:15.560Z,12
2022-08-11T07:31:17.710Z,12
2022-08-11T07:32:19.251Z,12
2022-08-11T07:34:12.142Z,12
2022-08-11T07:35:19.551Z,12
2022-08-11T07:36:28.293Z,11
2022-08-11T07:37:30.622Z,11
2022-08-11T07:38:32.921Z,11
2022-08-11T07:39:36.281Z,13
2022-08-11T07:40:38.020Z,15
2022-08-11T07:41:39.264Z,14
2022-08-11T07:42:40.823Z,15
2022-08-11T07:43:42.660Z,16
2022-08-11T07:44:44.434Z,15
2022-08-11T07:45:45.455Z,15
2022-08-11T07:46:47.498Z,13
2022-08-11T07:47:49.900Z,12
2022-08-11T07:48:51.150Z,11
2022-08-11T07:49:52.959Z,10
2022-08-11T07:50:56.825Z,10
2022-08-11T07:51:58.184Z,9
2022-08-11T07:53:00.148Z,10
2022-08-11T07:54:17.547Z,10
2022-08-11T07:55:51.914Z,11
2022-08-11T07:57:25.152Z,10
2022-08-11T08:00:04.461Z,9
2022-08-11T08:01:22.861Z,9
2022-08-11T08:02:29.235Z,9
2022-08-11T08:03:32.231Z,9
2022-08-11T08:04:33.222Z,9
2022-08-11T08:05:34.518Z,8
2022-08-11T08:06:36.915Z,8
2022-08-11T08:07:39.595Z,8
2022-08-11T08:08:41.700Z,8
2022-08-11T08:09:42.983Z,8
2022-08-11T08:10:43.997Z,8
2022-08-11T08:11:45.563Z,7
2022-08-11T08:12:47.261Z,7
2022-08-11T08:13:50.797Z,7
2022-08-11T08:14:52.375Z,6
2022-08-11T08:15:53.371Z,6
2022-08-11T08:16:55.735Z,6
2022-08-11T08:18:27.704Z,7
2022-08-11T08:19:30.597Z,7
2022-08-11T08:20:31.832Z,7
2022-08-11T08:21:33.521Z,7
2022-08-11T08:22:39.710Z,7
2022-08-11T08:23:56.677Z,7
2022-08-11T08:24:57.777Z,7
2022-08-11T08:26:00.054Z,7
2022-08-11T08:27:01.889Z,9
2022-08-11T08:28:03.667Z,9
2022-08-11T08:29:06.012Z,10
2022-08-11T08:30:07.381Z,9
2022-08-11T08:31:08.964Z,8
2022-08-11T08:32:09.982Z,9
2022-08-11T08:33:11.251Z,10
2022-08-11T08:34:12.259Z,11
2022-08-11T08:35:13.809Z,11
2022-08-11T08:36:15.110Z,11
2022-08-11T08:37:47.624Z,11
2022-08-11T08:38:49.847Z,11
2022-08-11T08:39:51.498Z,11
2022-08-11T08:40:56.813Z,11
2022-08-11T08:41:58.159Z,10
2022-08-11T08:42:59.436Z,13
2022-08-11T08:44:38.162Z,16
2022-08-11T08:45:50.599Z,19
2022-08-11T08:46:53.200Z,21
2022-08-11T08:47:54.476Z,20
2022-08-11T08:48:55.483Z,17
2022-08-11T08:49:56.476Z,12
2022-08-11T08:50:57.789Z,10
2022-08-11T08:52:29.464Z,8
2022-08-11T08:53:56.114Z,7
2022-08-11T08:55:00.272Z,8
2022-08-11T08:56:02.085Z,8
2022-08-11T08:57:03.099Z,7
2022-08-11T08:58:04.399Z,7
2022-08-11T08:59:05.937Z,7
2022-08-11T09:00:12.413Z,7
2022-08-11T09:01:24.801Z,6
2022-08-11T09:02:35.224Z,6
2022-08-11T09:04:09.096Z,6
2022-08-11T09:05:21.946Z,7
2022-08-11T09:06:23.736Z,8
2022-08-11T09:07:24.760Z,9
2022-08-11T09:08:26.291Z,11
2022-08-11T09:09:27.901Z,11
2022-08-11T09:10:28.908Z,10
2022-08-11T09:11:30.820Z,10
2022-08-11T09:12:39.327Z,9
2022-08-11T09:13:41.070Z,7
2022-08-11T09:14:42.092Z,6
2022-08-11T09:15:43.340Z,6
2022-08-11T09:16:44.624Z,6
2022-08-11T09:17:45.632Z,7
2022-08-11T09:18:52.241Z,8
2022-08-11T09:19:59.562Z,8
2022-08-11T09:21:05.067Z,8
2022-08-11T09:22:06.602Z,7
2022-08-11T09:25:27.698Z,11
2022-08-11T09:26:31.427Z,17
2022-08-11T09:27:32.928Z,21
2022-08-11T09:28:35.306Z,25
2022-08-11T09:29:37.709Z,22
2022-08-11T09:30:41.611Z,18
2022-08-11T09:31:43.168Z,14
2022-08-11T09:32:44.212Z,11
2022-08-11T09:33:45.261Z,9
2022-08-11T09:34:46.613Z,7
2022-08-11T09:35:48.110Z,7
2022-08-11T09:36:49.917Z,7
2022-08-11T09:37:56.638Z,7
2022-08-11T09:39:00.518Z,8
2022-08-11T09:40:04.171Z,8
2022-08-11T09:41:05.973Z,8
2022-08-11T09:42:16.282Z,8
2022-08-11T09:43:29.849Z,7
2022-08-11T09:44:30.859Z,7
2022-08-11T09:45:40.784Z,6
2022-08-11T09:46:41.783Z,7
2022-08-11T09:47:43.041Z,8
2022-08-11T09:48:47.274Z,8
2022-08-11T09:49:48.890Z,9
2022-08-11T09:50:50.183Z,8
2022-08-11T09:52:05.790Z,7
2022-08-11T09:53:41.156Z,7
2022-08-11T09:55:04.721Z,10
2022-08-11T09:56:06.710Z,11
2022-08-11T09:57:07.734Z,11
2022-08-11T09:58:09.860Z,12
2022-08-11T09:59:42.454Z,10
2022-08-11T10:00:46.113Z,10
2022-08-11T10:01:48.309Z,12
2022-08-11T10:02:49.591Z,12
2022-08-11T10:03:50.610Z,12
2022-08-11T10:04:51.890Z,11
2022-08-11T10:05:52.898Z,10
2022-08-11T10:06:55.904Z,9
2022-08-11T10:07:56.907Z,9
2022-08-11T10:08:58.144Z,8
2022-08-11T10:09:59.999Z,8
2022-08-11T10:11:02.539Z,8
2022-08-11T10:12:04.326Z,8
2022-08-11T10:14:32.355Z,8
2022-08-11T10:15:36.220Z,7
2022-08-11T10:16:37.618Z,7
2022-08-11T10:17:40.264Z,7
2022-08-11T10:18:41.766Z,8
2022-08-11T10:19:43.039Z,8
2022-08-11T10:21:02.334Z,8
2022-08-11T10:22:03.886Z,8
2022-08-11T10:23:05.948Z,7
2022-08-11T10:24:07.241Z,8
2022-08-11T10:25:08.220Z,8
2022-08-11T10:26:09.786Z,9
2022-08-11T10:27:11.539Z,10
2022-08-11T10:28:49.931Z,9
2022-08-11T10:30:16.170Z,10
2022-08-11T10:31:18.730Z,10
2022-08-11T10:32:23.660Z,10
2022-08-11T10:33:39.924Z,9
2022-08-11T10:35:01.355Z,8
2022-08-11T10:36:02.381Z,7
2022-08-11T10:37:16.502Z,8
2022-08-11T10:38:17.846Z,8
2022-08-11T10:39:20.172Z,9
2022-08-11T10:40:21.726Z,9
2022-08-11T10:41:22.988Z,8
2022-08-11T10:42:57.588Z,10
2022-08-11T10:44:04.072Z,12
2022-08-11T10:45:05.752Z,12
2022-08-11T10:46:07.270Z,14
2022-08-11T10:47:09.066Z,12
2022-08-11T10:48:15.844Z,13
2022-08-11T10:49:17.145Z,14
2022-08-11T10:50:18.418Z,13
2022-08-11T10:51:51.966Z,18
2022-08-11T10:53:00.066Z,18
2022-08-11T10:54:01.607Z,18
2022-08-11T10:55:03.849Z,18
2022-08-11T10:56:05.679Z,15
2022-08-11T10:57:07.097Z,12
2022-08-11T10:58:08.324Z,11
2022-08-11T10:59:09.659Z,10
2022-08-11T11:00:10.970Z,10
2022-08-11T11:01:12.293Z,10
2022-08-11T11:02:14.673Z,10
2022-08-11T11:03:24.119Z,11
2022-08-11T11:04:28.203Z,10
2022-08-11T11:05:34.706Z,10
2022-08-11T11:06:36.325Z,10
2022-08-11T11:07:44.718Z,10
2022-08-11T11:08:46.112Z,11
2022-08-11T11:09:53.377Z,10
2022-08-11T11:10:54.667Z,10
2022-08-11T11:11:56.485Z,10
2022-08-11T11:12:57.983Z,9
2022-08-11T11:13:59.253Z,9
2022-08-11T11:15:17.919Z,9
2022-08-11T11:16:19.348Z,10
2022-08-11T11:17:20.587Z,11
2022-08-11T11:18:21.580Z,11
2022-08-11T11:19:23.071Z,10
2022-08-11T11:20:40.734Z,10
2022-08-11T11:21:49.156Z,10
2022-08-11T11:22:50.981Z,11
2022-08-11T11:23:53.063Z,11
2022-08-11T11:24:54.312Z,12
2022-08-11T11:25:57.771Z,12
2022-08-11T11:27:00.579Z,12
2022-08-11T11:28:01.889Z,12
2022-08-11T11:29:02.878Z,11
2022-08-11T11:30:04.117Z,11
2022-08-11T11:31:05.101Z,11
2022-08-11T11:32:06.403Z,12
2022-08-11T11:33:09.006Z,12
2022-08-11T11:34:13.088Z,13
2022-08-11T11:35:14.141Z,13
2022-08-11T11:36:16.361Z,15
2022-08-11T11:37:18.212Z,17
2022-08-11T11:38:19.755Z,19
2022-08-11T11:39:21.180Z,19
2022-08-11T11:40:31.592Z,19
2022-08-11T11:41:33.848Z,17
2022-08-11T11:42:35.155Z,16
2022-08-11T11:43:36.421Z,16
2022-08-11T11:44:40.092Z,16
2022-08-11T11:45:42.515Z,17
2022-08-11T11:46:43.763Z,18
2022-08-11T11:47:45.052Z,18
2022-08-11T11:48:46.325Z,18
2022-08-11T11:49:48.641Z,17
2022-08-11T11:50:49.882Z,17
2022-08-11T11:51:59.251Z,17
2022-08-11T11:53:00.535Z,16
2022-08-11T11:54:02.111Z,16
2022-08-11T11:55:03.360Z,16
2022-08-11T11:56:04.671Z,16
2022-08-11T11:57:05.664Z,18
2022-08-11T11:58:06.958Z,19
2022-08-11T11:59:19.356Z,20
2022-08-11T12:00:20.641Z,20
2022-08-11T12:01:21.670Z,21
2022-08-11T12:02:22.951Z,19
2022-08-11T12:03:24.308Z,19
2022-08-11T12:04:25.557Z,18
2022-08-11T12:05:26.520Z,17
2022-08-11T12:06:28.043Z,18
2022-08-11T12:07:30.211Z,19
2022-08-11T12:08:31.772Z,22
2022-08-11T12:09:32.774Z,23
2022-08-11T12:10:34.020Z,24
2022-08-11T12:11:36.059Z,24
2022-08-11T12:12:37.018Z,23
2022-08-11T12:13:38.672Z,22
2022-08-11T12:14:39.960Z,22
2022-08-11T12:16:36.547Z,23
2022-08-11T12:17:39.140Z,23
2022-08-11T12:18:42.890Z,25
2022-08-11T12:19:48.929Z,26
2022-08-11T12:20:51.176Z,27
2022-08-11T12:22:01.380Z,27
2022-08-11T12:23:02.718Z,25
2022-08-11T12:24:04.997Z,23
2022-08-11T12:25:06.236Z,24
2022-08-11T12:26:27.740Z,23
2022-08-11T12:27:29.599Z,24
2022-08-11T12:28:31.988Z,24
2022-08-11T12:29:33.020Z,23
2022-08-11T12:30:35.963Z,22
2022-08-11T12:31:37.424Z,21
2022-08-11T12:32:39.748Z,20
2022-08-11T12:33:42.620Z,19
2022-08-11T12:34:44.014Z,17
2022-08-11T12:36:01.536Z,15
2022-08-11T12:37:03.368Z,14
2022-08-11T12:38:13.121Z,14
2022-08-11T12:40:50.166Z,13
2022-08-11T12:42:19.951Z,13
2022-08-11T12:43:39.612Z,12
2022-08-11T12:44:41.309Z,11
2022-08-11T12:45:42.908Z,11
2022-08-11T12:46:44.695Z,10
2022-08-11T12:49:02.241Z,11
2022-08-11T12:50:23.677Z,11
2022-08-11T12:51:25.122Z,11
2022-08-11T12:52:26.402Z,12
2022-08-11T12:53:27.957Z,12
2022-08-11T12:54:32.174Z,12
2022-08-11T12:55:34.263Z,12
2022-08-11T12:56:36.455Z,11
2022-08-11T12:57:39.457Z,11
2022-08-11T12:58:41.300Z,11
2022-08-11T12:59:42.596Z,10
2022-08-11T13:00:45.026Z,10
2022-08-11T13:01:46.635Z,9
2022-08-11T13:02:48.267Z,9
2022-08-11T13:03:57.038Z,9
2022-08-11T13:04:59.669Z,9
2022-08-11T13:06:05.369Z,9
2022-08-11T13:07:07.241Z,9
2022-08-11T13:08:08.236Z,9
2022-08-11T13:09:09.835Z,10
2022-08-11T13:10:17.482Z,10
2022-08-11T13:11:19.352Z,10
2022-08-11T13:12:20.956Z,9
2022-08-11T13:13:57.668Z,9
2022-08-11T13:14:59.702Z,10
2022-08-11T13:16:02.707Z,10
2022-08-11T13:17:04.276Z,10
2022-08-11T13:18:05.801Z,10
2022-08-11T13:19:07.343Z,10
2022-08-11T13:20:08.615Z,10
2022-08-11T13:21:09.623Z,11
2022-08-11T13:22:10.621Z,11
2022-08-11T13:23:11.912Z,10
2022-08-11T13:24:13.500Z,10
2022-08-11T13:25:15.520Z,9
2022-08-11T13:26:16.529Z,9
2022-08-11T13:27:43.920Z,9
2022-08-11T13:28:45.913Z,10
2022-08-11T13:29:47.187Z,10
2022-08-11T13:30:48.221Z,10
2022-08-11T13:31:49.204Z,9
2022-08-11T13:32:50.230Z,8
2022-08-11T13:33:52.372Z,7
2022-08-11T13:34:53.587Z,7
2022-08-11T13:35:54.581Z,7
2022-08-11T13:36:55.858Z,7
2022-08-11T13:38:27.821Z,8
2022-08-11T13:39:30.789Z,7
2022-08-11T13:40:56.304Z,7
2022-08-11T13:41:57.460Z,7
2022-08-11T13:42:58.465Z,7
2022-08-11T13:44:03.473Z,8
2022-08-11T13:45:04.495Z,7
2022-08-11T13:46:05.767Z,7
2022-08-11T13:47:07.588Z,6
2022-08-11T13:48:09.124Z,6
2022-08-11T13:49:10.398Z,6
2022-08-11T13:50:13.739Z,6
2022-08-11T13:51:15.852Z,6
2022-08-11T13:52:16.881Z,6
2022-08-11T13:53:18.406Z,7
2022-08-11T13:54:20.239Z,7
2022-08-11T13:55:52.619Z,8
2022-08-11T13:56:54.274Z,10
2022-08-11T13:58:38.962Z,10
2022-08-11T13:59:52.971Z,10
2022-08-11T14:02:23.106Z,10
2022-08-11T14:04:32.302Z,9
2022-08-11T14:05:34.332Z,9
2022-08-11T14:06:36.440Z,10
2022-08-11T14:07:38.478Z,10
2022-08-11T14:08:47.641Z,10
2022-08-11T14:09:57.249Z,11
2022-08-11T14:10:58.760Z,11
2022-08-11T14:12:24.602Z,11
2022-08-11T14:13:25.905Z,10
2022-08-11T14:14:27.410Z,9
2022-08-11T14:15:29.194Z,8
2022-08-11T14:16:30.466Z,7
2022-08-11T14:17:49.226Z,7
2022-08-11T14:18:52.143Z,6
2022-08-11T14:19:53.976Z,7
2022-08-11T14:20:55.281Z,6
2022-08-11T14:21:56.520Z,6
2022-08-11T14:22:57.668Z,7
2022-08-11T14:24:01.749Z,7
2022-08-11T14:25:03.320Z,7
2022-08-11T14:26:04.611Z,7
2022-08-11T14:27:05.614Z,6
2022-08-11T14:28:45.534Z,7
2022-08-11T14:29:49.343Z,7
2022-08-11T14:30:51.414Z,6
2022-08-11T14:32:02.661Z,7
2022-08-11T14:33:20.467Z,6
2022-08-11T14:34:22.413Z,6
2022-08-11T14:35:23.727Z,6
2022-08-11T14:36:24.989Z,5
2022-08-11T14:37:26.675Z,5
2022-08-11T14:38:28.843Z,5
2022-08-11T14:39:33.365Z,5
2022-08-11T14:40:34.972Z,5
2022-08-11T14:41:36.323Z,5
2022-08-11T14:43:10.429Z,6
2022-08-11T14:44:15.309Z,7
2022-08-11T14:45:17.173Z,7
2022-08-11T14:46:18.499Z,8
2022-08-11T14:47:25.529Z,9
2022-08-11T14:48:27.072Z,9
2022-08-11T14:49:28.136Z,8
2022-08-11T14:50:29.960Z,8
2022-08-11T14:51:31.752Z,8
2022-08-11T14:52:32.753Z,8
2022-08-11T14:53:34.302Z,8
2022-08-11T14:54:35.834Z,7
2022-08-11T14:55:37.420Z,6
2022-08-11T14:56:38.496Z,5
2022-08-11T14:57:57.160Z,5
2022-08-11T14:58:58.726Z,6
2022-08-11T15:00:00.000Z,7
2022-08-11T15:01:02.478Z,8
2022-08-11T15:02:04.688Z,7
2022-08-11T15:03:05.990Z,6
2022-08-11T15:04:37.134Z,6
2022-08-11T15:05:38.932Z,6
2022-08-11T15:06:40.210Z,7
2022-08-11T15:07:41.832Z,7
2022-08-11T15:08:42.960Z,7
2022-08-11T15:10:12.985Z,7
2022-08-11T15:11:16.102Z,7
2022-08-11T15:12:33.610Z,6
2022-08-11T15:13:35.497Z,6
2022-08-11T15:14:36.467Z,6
2022-08-11T15:15:37.466Z,5
2022-08-11T15:16:38.735Z,6
2022-08-11T15:17:43.962Z,6
2022-08-11T15:18:49.906Z,5
2022-08-11T15:19:51.468Z,6
2022-08-11T15:20:54.088Z,5
2022-08-11T15:21:55.074Z,5
2022-08-11T15:22:56.103Z,6
2022-08-11T15:23:57.092Z,6
2022-08-11T15:24:58.651Z,6
2022-08-11T15:26:00.462Z,7
2022-08-11T15:27:01.763Z,7
2022-08-11T15:28:02.755Z,8
2022-08-11T15:29:04.358Z,8
2022-08-11T15:30:05.656Z,7
2022-08-11T15:31:06.655Z,7
2022-08-11T15:32:08.205Z,6
2022-08-11T15:33:09.912Z,6
2022-08-11T15:34:18.386Z,5
2022-08-11T15:35:20.180Z,5
2022-08-11T15:36:22.375Z,5
2022-08-11T15:37:23.383Z,5
2022-08-11T15:38:24.697Z,5
2022-08-11T15:39:25.801Z,5
2022-08-11T15:40:33.184Z,6
2022-08-11T15:41:38.361Z,5
2022-08-11T15:42:43.037Z,5
2022-08-11T15:43:45.628Z,5
2022-08-11T15:45:05.795Z,4
2022-08-11T15:46:09.928Z,4
2022-08-11T15:47:11.487Z,4